createdAt,value
2023-10-03T00:01:00.987Z,98772.09
2023-10-03T00:03:28.825Z,98777.03
2023-10-03T00:05:56.318Z,98767.84
2023-10-03T00:08:23.651Z,98764.66
2023-10-03T00:10:50.558Z,98771.69
2023-10-03T00:13:18.822Z,98765.22
2023-10-03T00:15:46.094Z,98757.84
2023-10-03T00:18:14.448Z,98750.66
2023-10-03T00:20:42.545Z,98753.66
2023-10-03T00:23:09.782Z,98746.22
2023-10-03T00:25:37.128Z,98746.66
2023-10-03T00:28:06.837Z,98742.28
2023-10-03T00:30:39.694Z,98738.00
2023-10-03T00:33:11.090Z,98737.22
2023-10-03T00:35:38.461Z,98740.78
2023-10-03T00:38:14.545Z,98732.94
2023-10-03T00:40:44.317Z,98719.13
2023-10-03T00:43:13.016Z,98725.66
2023-10-03T00:45:39.789Z,98713.53
2023-10-03T00:48:10.082Z,98714.09
2023-10-03T00:50:38.734Z,98706.63
2023-10-03T00:53:11.109Z,98709.94
2023-10-03T00:55:39.665Z,98709.91
2023-10-03T00:58:09.010Z,98700.84
2023-10-03T01:00:44.539Z,98689.63
2023-10-03T01:03:39.425Z,98699.72
2023-10-03T01:06:13.549Z,98688.34
2023-10-03T01:08:50.062Z,98705.72
2023-10-03T01:11:18.779Z,98695.72
2023-10-03T01:13:55.208Z,98686.03
2023-10-03T01:16:31.006Z,98689.91
2023-10-03T01:19:10.633Z,98693.66
2023-10-03T01:21:37.817Z,98686.34
2023-10-03T01:24:09.852Z,98671.31
2023-10-03T01:26:36.576Z,98671.91
2023-10-03T01:29:04.212Z,98678.84
2023-10-03T01:31:31.658Z,98671.63
2023-10-03T01:33:58.341Z,98677.41
2023-10-03T01:36:27.976Z,98678.72
2023-10-03T01:38:54.666Z,98665.88
2023-10-03T01:41:21.328Z,98654.56
2023-10-03T01:43:50.718Z,98662.25
2023-10-03T01:46:20.464Z,98664.25
2023-10-03T01:48:47.144Z,98649.16
2023-10-03T01:51:13.804Z,98642.63
2023-10-03T01:53:41.370Z,98650.47
2023-10-03T01:56:08.195Z,98637.44
2023-10-03T01:58:35.386Z,98641.38
2023-10-03T02:01:02.342Z,98628.06
2023-10-03T02:03:30.711Z,98633.66
2023-10-03T02:05:57.804Z,98633.91
2023-10-03T02:08:26.731Z,98629.47
2023-10-03T02:10:54.221Z,98621.91
2023-10-03T02:13:22.634Z,98616.75
2023-10-03T02:15:55.551Z,98607.16
2023-10-03T02:18:23.046Z,98611.41
2023-10-03T02:21:02.273Z,98605.16
2023-10-03T02:23:29.815Z,98593.84
2023-10-03T02:26:06.818Z,98600.53
2023-10-03T02:28:35.171Z,98593.50
2023-10-03T02:31:04.513Z,98583.09
2023-10-03T02:33:31.234Z,98594.84
2023-10-03T02:35:57.987Z,98582.00
2023-10-03T02:38:31.340Z,98575.78
2023-10-03T02:41:00.732Z,98576.84
2023-10-03T02:43:32.512Z,98578.69
2023-10-03T02:46:00.826Z,98578.63
2023-10-03T02:48:27.637Z,98573.59
2023-10-03T02:50:54.327Z,98580.47
2023-10-03T02:53:21.389Z,98568.19
2023-10-03T02:55:53.076Z,98565.34
2023-10-03T02:58:21.392Z,98553.22
2023-10-03T03:00:55.556Z,98549.19
2023-10-03T03:03:34.400Z,98548.69
2023-10-03T03:06:10.864Z,98542.56
2023-10-03T03:08:45.342Z,98540.66
2023-10-03T03:11:12.685Z,98546.75
2023-10-03T03:13:39.663Z,98537.72
2023-10-03T03:16:07.950Z,98532.84
2023-10-03T03:18:42.874Z,98528.66
2023-10-03T03:21:16.762Z,98526.22
2023-10-03T03:23:57.696Z,98531.53
2023-10-03T03:26:37.282Z,98533.78
2023-10-03T03:29:21.614Z,98533.69
2023-10-03T03:31:53.110Z,98522.41
2023-10-03T03:34:21.022Z,98523.66
2023-10-03T03:36:48.226Z,98517.09
2023-10-03T03:39:16.426Z,98523.34
2023-10-03T03:41:44.294Z,98523.09
2023-10-03T03:44:14.248Z,98527.34
2023-10-03T03:46:42.180Z,98530.88
2023-10-03T03:49:10.004Z,98528.78
2023-10-03T03:51:37.687Z,98527.31
2023-10-03T03:54:10.999Z,98528.19
2023-10-03T03:56:39.774Z,98521.94
2023-10-03T03:59:06.474Z,98501.25
2023-10-03T04:01:34.544Z,98508.69
2023-10-03T04:04:02.038Z,98497.53
2023-10-03T04:06:28.763Z,98500.78
2023-10-03T04:09:08.354Z,98496.91
2023-10-03T04:11:36.648Z,98497.91
2023-10-03T04:14:07.026Z,98496.81
2023-10-03T04:16:40.708Z,98497.41
2023-10-03T04:19:08.764Z,98492.78
2023-10-03T04:21:36.172Z,98503.47
2023-10-03T04:24:03.573Z,98503.28
2023-10-03T04:26:33.516Z,98507.53
2023-10-03T04:29:00.410Z,98502.53
2023-10-03T04:31:27.352Z,98487.91
2023-10-03T04:33:54.138Z,98492.75
2023-10-03T04:36:25.722Z,98492.00
2023-10-03T04:38:52.520Z,98494.66
2023-10-03T04:41:19.229Z,98496.78
2023-10-03T04:43:45.873Z,98491.81
2023-10-03T04:46:12.983Z,98479.75
2023-10-03T04:48:39.875Z,98475.97
2023-10-03T04:51:06.801Z,98472.03
2023-10-03T04:53:33.756Z,98465.13
2023-10-03T04:56:00.650Z,98462.41
2023-10-03T04:58:27.296Z,98457.94
2023-10-03T05:00:54.397Z,98472.03
2023-10-03T05:03:22.762Z,98479.28
2023-10-03T05:05:50.302Z,98482.38
2023-10-03T05:08:19.764Z,98473.03
2023-10-03T05:10:48.006Z,98474.19
2023-10-03T05:13:17.697Z,98480.28
2023-10-03T05:15:44.462Z,98481.78
2023-10-03T05:18:11.263Z,98477.09
2023-10-03T05:20:42.085Z,98488.28
2023-10-03T05:23:09.273Z,98489.78
2023-10-03T05:25:43.469Z,98488.56
2023-10-03T05:28:13.596Z,98487.34
2023-10-03T05:30:41.481Z,98481.16
2023-10-03T05:33:09.024Z,98488.00
2023-10-03T05:35:36.519Z,98487.50
2023-10-03T05:38:09.752Z,98482.84
2023-10-03T05:40:37.037Z,98487.84
2023-10-03T05:43:06.181Z,98494.19
2023-10-03T05:45:35.686Z,98495.16
2023-10-03T05:48:05.813Z,98484.28
2023-10-03T05:50:34.130Z,98488.16
2023-10-03T05:53:01.881Z,98491.56
2023-10-03T05:55:28.549Z,98496.47
2023-10-03T05:57:55.235Z,98498.44
2023-10-03T06:00:22.326Z,98485.44
2023-10-03T06:02:49.212Z,98487.28
2023-10-03T06:05:16.742Z,98500.13
2023-10-03T06:07:47.376Z,98493.47
2023-10-03T06:10:16.829Z,98515.03
2023-10-03T06:12:43.568Z,98514.44
2023-10-03T06:15:11.015Z,98514.91
2023-10-03T06:17:37.801Z,98527.06
2023-10-03T06:20:07.504Z,98533.03
2023-10-03T06:22:36.380Z,98528.63
2023-10-03T06:25:03.100Z,98518.09
2023-10-03T06:27:30.718Z,98528.13
2023-10-03T06:29:57.548Z,98515.50
2023-10-03T06:32:24.660Z,98505.69
2023-10-03T06:34:51.361Z,98516.38
2023-10-03T06:37:18.046Z,98511.13
2023-10-03T06:39:44.894Z,98509.13
2023-10-03T06:42:11.810Z,98516.97
2023-10-03T06:44:38.606Z,98511.94
2023-10-03T06:47:05.814Z,98517.22
2023-10-03T06:49:32.749Z,98510.53
2023-10-03T06:52:01.873Z,98512.03
2023-10-03T06:54:29.008Z,98515.19
2023-10-03T06:56:56.561Z,98524.28
2023-10-03T06:59:23.660Z,98529.81
2023-10-03T07:01:50.320Z,98525.75
2023-10-03T07:04:17.272Z,98514.59
2023-10-03T07:06:45.113Z,98526.91
2023-10-03T07:09:12.650Z,98530.75
2023-10-03T07:11:39.620Z,98538.22
2023-10-03T07:14:06.648Z,98553.19
2023-10-03T07:16:38.730Z,98553.16
2023-10-03T07:19:05.736Z,98550.53
2023-10-03T07:21:35.617Z,98562.25
2023-10-03T07:24:03.503Z,98560.00
2023-10-03T07:26:30.758Z,98539.78
2023-10-03T07:28:59.925Z,98549.22
2023-10-03T07:33:56.104Z,98563.84
2023-10-03T07:36:24.443Z,98561.06
2023-10-03T07:38:51.251Z,98576.94
2023-10-03T07:41:19.558Z,98565.25
2023-10-03T07:43:49.681Z,98569.00
2023-10-03T07:46:24.089Z,98561.94
2023-10-03T07:48:53.966Z,98564.38
2023-10-03T07:51:27.737Z,98562.16
2023-10-03T07:53:56.742Z,98553.44
2023-10-03T07:56:34.626Z,98546.56
2023-10-03T07:59:03.460Z,98548.75
2023-10-03T08:01:41.489Z,98551.66
2023-10-03T08:04:16.030Z,98565.03
2023-10-03T08:06:43.173Z,98576.63
2023-10-03T08:09:10.869Z,98571.66
2023-10-03T08:11:38.181Z,98577.44
2023-10-03T08:14:14.510Z,98570.53
2023-10-03T08:16:42.391Z,98581.75
2023-10-03T08:19:22.476Z,98587.19
2023-10-03T08:21:50.027Z,98587.38
2023-10-03T08:24:20.121Z,98612.34
2023-10-03T08:26:47.847Z,98616.38
2023-10-03T08:29:24.367Z,98600.25
2023-10-03T08:31:59.417Z,98592.50
2023-10-03T08:34:30.145Z,98607.44
2023-10-03T08:37:01.655Z,98611.72
2023-10-03T08:39:33.206Z,98615.38
2023-10-03T08:42:39.000Z,98612.63
2023-10-03T08:45:18.796Z,98622.00
2023-10-03T08:47:51.829Z,98612.44
2023-10-03T08:50:30.621Z,98612.50
2023-10-03T08:52:59.936Z,98609.31
2023-10-03T08:55:27.750Z,98608.44
2023-10-03T08:57:54.746Z,98611.50
2023-10-03T09:00:29.649Z,98622.75
2023-10-03T09:03:10.240Z,98624.03
2023-10-03T09:05:43.974Z,98626.03
2023-10-03T09:08:16.004Z,98634.88
2023-10-03T09:10:53.687Z,98637.28
2023-10-03T09:13:26.464Z,98624.56
2023-10-03T09:16:01.699Z,98630.16
2023-10-03T09:18:41.787Z,98639.56
2023-10-03T09:21:17.571Z,98643.63
2023-10-03T09:24:16.255Z,98639.38
2023-10-03T09:26:49.032Z,98643.31
2023-10-03T09:29:32.549Z,98650.56
2023-10-03T09:32:14.145Z,98644.59
2023-10-03T09:34:47.932Z,98642.41
2023-10-03T09:37:17.889Z,98634.94
2023-10-03T09:39:51.067Z,98644.25
2023-10-03T09:42:20.299Z,98657.16
2023-10-03T09:44:49.767Z,98660.16
2023-10-03T09:47:20.521Z,98651.59
2023-10-03T09:49:48.756Z,98660.00
2023-10-03T09:52:24.206Z,98645.81
2023-10-03T09:54:55.217Z,98640.47
2023-10-03T09:57:31.362Z,98648.16
2023-10-03T09:59:59.159Z,98650.31
2023-10-03T10:02:47.142Z,98649.28
2023-10-03T10:05:23.321Z,98667.28
2023-10-03T10:08:22.031Z,98673.34
2023-10-03T10:11:09.124Z,98660.84
2023-10-03T10:13:38.328Z,98656.03
2023-10-03T10:16:10.193Z,98667.19
2023-10-03T10:18:46.137Z,98678.09
2023-10-03T10:21:37.921Z,98671.38
2023-10-03T10:24:16.989Z,98674.06
2023-10-03T10:26:55.479Z,98683.00
2023-10-03T10:29:26.704Z,98682.78
2023-10-03T10:32:01.079Z,98687.88
2023-10-03T10:34:33.975Z,98681.72
2023-10-03T10:37:13.048Z,98680.78
2023-10-03T10:40:05.980Z,98678.50
2023-10-03T10:42:33.288Z,98680.28
2023-10-03T10:45:14.910Z,98675.34
2023-10-03T10:47:52.316Z,98668.38
2023-10-03T10:50:22.816Z,98660.81
2023-10-03T10:53:03.404Z,98671.09
2023-10-03T10:55:30.539Z,98658.91
2023-10-03T10:58:13.937Z,98653.41
2023-10-03T11:00:41.804Z,98659.81
2023-10-03T11:03:09.206Z,98667.09
2023-10-03T11:05:51.697Z,98672.22
2023-10-03T11:08:22.867Z,98658.88
2023-10-03T11:10:57.320Z,98647.81
2023-10-03T11:13:25.351Z,98667.34
2023-10-03T11:15:53.604Z,98655.38
2023-10-03T11:18:31.998Z,98658.00
2023-10-03T11:21:01.131Z,98660.16
2023-10-03T11:23:27.945Z,98654.69
2023-10-03T11:25:59.338Z,98639.41
2023-10-03T11:28:30.394Z,98649.22
2023-10-03T11:31:08.094Z,98646.25
2023-10-03T11:33:46.466Z,98649.06
2023-10-03T11:36:15.221Z,98636.91
2023-10-03T11:38:54.580Z,98640.91
2023-10-03T11:41:31.976Z,98626.91
2023-10-03T11:43:58.846Z,98624.34
2023-10-03T11:46:26.363Z,98623.16
2023-10-03T11:49:00.819Z,98624.94
2023-10-03T11:51:27.546Z,98624.50
2023-10-03T11:53:54.299Z,98637.44
2023-10-03T11:56:21.421Z,98639.00
2023-10-03T11:58:48.073Z,98638.72
2023-10-03T12:01:14.764Z,98643.31
2023-10-03T12:03:41.578Z,98632.16
2023-10-03T12:06:09.391Z,98627.06
2023-10-03T12:08:41.786Z,98633.38
2023-10-03T12:11:08.641Z,98627.25
2023-10-03T12:13:37.970Z,98632.09
2023-10-03T12:16:05.780Z,98622.13
2023-10-03T12:18:32.751Z,98631.28
2023-10-03T12:21:00.097Z,98633.00
2023-10-03T12:23:28.562Z,98624.50
2023-10-03T12:25:55.255Z,98609.31
2023-10-03T12:28:22.803Z,98622.00
2023-10-03T12:30:52.077Z,98634.56
2023-10-03T12:33:20.256Z,98638.03
2023-10-03T12:35:47.941Z,98629.53
2023-10-03T12:38:16.790Z,98627.75
2023-10-03T12:40:44.511Z,98642.34
2023-10-03T12:43:11.618Z,98645.53
2023-10-03T12:45:38.822Z,98662.50
2023-10-03T12:48:06.481Z,98663.34
2023-10-03T12:50:37.048Z,98657.59
2023-10-03T12:53:05.535Z,98653.03
2023-10-03T12:55:33.828Z,98649.41
2023-10-03T12:58:00.588Z,98646.88
2023-10-03T13:00:28.017Z,98651.41
2023-10-03T13:03:00.921Z,98656.13
2023-10-03T13:05:28.051Z,98659.66
2023-10-03T13:07:54.761Z,98671.91
2023-10-03T13:10:24.118Z,98681.31
2023-10-03T13:12:52.924Z,98695.66
2023-10-03T13:15:20.067Z,98690.09
2023-10-03T13:17:50.053Z,98693.38
2023-10-03T13:20:19.312Z,98698.53
2023-10-03T13:22:48.916Z,98699.25
2023-10-03T13:25:21.483Z,98710.69
2023-10-03T13:27:50.044Z,98723.28
2023-10-03T13:30:25.697Z,98734.69
2023-10-03T13:32:56.051Z,98715.19
2023-10-03T13:35:23.568Z,98718.88
2023-10-03T13:37:52.135Z,98724.97
2023-10-03T13:40:19.618Z,98718.19
2023-10-03T13:42:48.471Z,98724.66
2023-10-03T13:45:16.829Z,98729.16
2023-10-03T13:47:46.278Z,98729.59
2023-10-03T13:50:14.443Z,98721.91
2023-10-03T13:52:44.305Z,98740.06
2023-10-03T13:55:11.633Z,98754.72
2023-10-03T13:57:43.310Z,98751.38
2023-10-03T14:00:14.779Z,98746.56
2023-10-03T14:02:48.400Z,98762.09
2023-10-03T14:05:17.063Z,98776.00
2023-10-03T14:07:43.743Z,98801.41
2023-10-03T14:10:15.998Z,98803.03
2023-10-03T14:12:44.278Z,98812.31
2023-10-03T14:15:11.872Z,98819.28
2023-10-03T14:17:39.579Z,98835.84
2023-10-03T14:20:11.078Z,98835.84
2023-10-03T14:22:41.980Z,98831.84
2023-10-03T14:25:15.744Z,98830.84
2023-10-03T14:27:45.352Z,98838.56
2023-10-03T14:30:13.549Z,98837.47
2023-10-03T14:32:44.861Z,98840.66
2023-10-03T14:35:15.132Z,98850.88
2023-10-03T14:37:42.771Z,98829.19
2023-10-03T14:40:11.211Z,98840.97
2023-10-03T14:42:39.026Z,98847.22
2023-10-03T14:45:09.505Z,98845.31
2023-10-03T14:47:36.455Z,98859.88
2023-10-03T14:50:03.335Z,98865.00
2023-10-03T14:52:29.976Z,98873.75
2023-10-03T14:54:56.691Z,98867.53
2023-10-03T14:57:23.397Z,98862.75
2023-10-03T14:59:51.628Z,98876.56
2023-10-03T15:02:18.398Z,98879.34
2023-10-03T15:04:46.769Z,98891.41
2023-10-03T15:07:17.606Z,98907.16
2023-10-03T15:09:44.425Z,98921.16
2023-10-03T15:12:11.496Z,98931.97
2023-10-03T15:14:38.504Z,98923.06
2023-10-03T15:17:05.354Z,98929.84
2023-10-03T15:19:35.101Z,98926.59
2023-10-03T15:22:01.932Z,98937.50
2023-10-03T15:24:31.056Z,98947.22
2023-10-03T15:26:57.933Z,98959.81
2023-10-03T15:29:25.004Z,98947.59
2023-10-03T15:31:51.639Z,98969.47
2023-10-03T15:34:30.179Z,98978.97
2023-10-03T15:36:58.883Z,98998.00
2023-10-03T15:39:26.133Z,99003.25
2023-10-03T15:41:54.297Z,99008.31
2023-10-03T15:44:21.828Z,99007.84
2023-10-03T15:46:49.019Z,99022.53
2023-10-03T15:49:15.841Z,99019.44
2023-10-03T15:51:42.813Z,99016.91
2023-10-03T15:54:09.950Z,99038.22
2023-10-03T15:56:36.722Z,99050.50
2023-10-03T15:59:03.846Z,99060.31
2023-10-03T16:01:30.777Z,99080.06
2023-10-03T16:03:58.484Z,99084.44
2023-10-03T16:06:25.675Z,99088.38
2023-10-03T16:08:52.941Z,99089.91
2023-10-03T16:11:19.695Z,99099.69
2023-10-03T16:13:46.744Z,99084.50
2023-10-03T16:16:13.704Z,99096.56
2023-10-03T16:18:40.401Z,99095.84
2023-10-03T16:21:10.104Z,99105.78
2023-10-03T16:23:37.565Z,99110.56
2023-10-03T16:26:04.235Z,99128.97
2023-10-03T16:28:31.310Z,99137.84
2023-10-03T16:30:58.590Z,99144.19
2023-10-03T16:33:25.645Z,99147.28
2023-10-03T16:35:52.489Z,99155.38
2023-10-03T16:38:19.592Z,99167.09
2023-10-03T16:40:46.301Z,99161.38
2023-10-03T16:43:13.167Z,99176.31
2023-10-03T16:45:40.184Z,99176.94
2023-10-03T16:48:08.711Z,99186.53
2023-10-03T16:50:38.891Z,99194.97
2023-10-03T16:53:05.762Z,99201.94
2023-10-03T16:55:33.568Z,99204.94
2023-10-03T16:58:03.688Z,99215.28
2023-10-03T17:00:30.996Z,99205.69
2023-10-03T17:02:57.868Z,99224.59
2023-10-03T17:05:24.624Z,99231.88
2023-10-03T17:07:54.837Z,99232.72
2023-10-03T17:10:21.884Z,99231.28
2023-10-03T17:12:49.049Z,99248.78
2023-10-03T17:15:17.286Z,99260.84
2023-10-03T17:17:45.038Z,99265.47
2023-10-03T17:20:12.946Z,99261.06
2023-10-03T17:22:41.228Z,99268.25
2023-10-03T17:25:08.962Z,99276.34
2023-10-03T17:27:36.361Z,99273.66
2023-10-03T17:30:16.385Z,99287.06
2023-10-03T17:32:46.063Z,99294.72
2023-10-03T17:35:13.992Z,99298.06
2023-10-03T17:37:42.353Z,99309.88
2023-10-03T17:40:14.240Z,99322.13
2023-10-03T17:42:42.111Z,99319.19
2023-10-03T17:45:11.020Z,99335.50
2023-10-03T17:47:39.343Z,99339.34
2023-10-03T17:50:14.465Z,99338.75
2023-10-03T17:52:42.969Z,99341.59
2023-10-03T17:55:12.334Z,99346.19
2023-10-03T17:57:40.966Z,99357.69
2023-10-03T18:00:14.628Z,99357.25
2023-10-03T18:02:43.373Z,99370.69
2023-10-03T18:05:11.499Z,99378.84
2023-10-03T18:07:42.986Z,99386.53
2023-10-03T18:10:13.102Z,99404.91
2023-10-03T18:12:44.609Z,99416.97
2023-10-03T18:15:12.872Z,99429.03
2023-10-03T18:17:40.299Z,99435.31
2023-10-03T18:20:11.922Z,99444.81
2023-10-03T18:22:42.035Z,99449.00
2023-10-03T18:25:14.077Z,99451.09
2023-10-03T18:27:41.926Z,99454.75
2023-10-03T18:30:13.822Z,99468.56
2023-10-03T18:32:41.841Z,99461.94
2023-10-03T18:35:10.306Z,99466.75
2023-10-03T18:37:37.066Z,99481.28
2023-10-03T18:40:08.787Z,99475.03
2023-10-03T18:42:38.578Z,99482.84
2023-10-03T18:45:06.418Z,99485.69
2023-10-03T18:47:33.907Z,99483.88
2023-10-03T18:50:02.260Z,99479.69
2023-10-03T18:52:30.007Z,99489.13
2023-10-03T18:54:56.655Z,99493.81
2023-10-03T18:57:23.340Z,99509.25
2023-10-03T18:59:50.308Z,99511.03
2023-10-03T19:02:17.057Z,99520.06
2023-10-03T19:04:43.778Z,99528.19
2023-10-03T19:07:12.916Z,99533.09
2023-10-03T19:09:39.845Z,99531.75
2023-10-03T19:12:07.073Z,99540.28
2023-10-03T19:14:33.780Z,99558.16
2023-10-03T19:17:00.505Z,99570.44
2023-10-03T19:19:27.360Z,99588.41
2023-10-03T19:21:54.003Z,99601.91
2023-10-03T19:24:21.005Z,99612.00
2023-10-03T19:26:47.707Z,99627.31
2023-10-03T19:29:15.535Z,99630.94
2023-10-03T19:31:42.494Z,99639.34
2023-10-03T19:34:09.581Z,99655.69
2023-10-03T19:36:37.201Z,99659.22
2023-10-03T19:39:04.093Z,99668.47
2023-10-03T19:41:41.547Z,99675.34
2023-10-03T19:44:08.983Z,99696.13
2023-10-03T19:46:36.819Z,99700.25
2023-10-03T19:49:03.778Z,99707.28
2023-10-03T19:51:33.715Z,99711.53
2023-10-03T19:54:00.930Z,99721.34
2023-10-03T19:56:27.968Z,99723.44
2023-10-03T19:58:55.989Z,99722.16
2023-10-03T20:01:23.777Z,99723.34
2023-10-03T20:03:51.280Z,99728.88
2023-10-03T20:06:19.506Z,99738.56
2023-10-03T20:08:47.778Z,99742.28
2023-10-03T20:11:14.560Z,99743.34
2023-10-03T20:13:42.142Z,99757.19
2023-10-03T20:16:14.011Z,99764.94
2023-10-03T20:18:41.997Z,99768.09
2023-10-03T20:21:09.551Z,99776.50
2023-10-03T20:23:36.576Z,99783.53
2023-10-03T20:26:03.696Z,99779.75
2023-10-03T20:28:30.494Z,99791.19
2023-10-03T20:30:57.875Z,99796.53
2023-10-03T20:33:25.044Z,99797.34
2023-10-03T20:35:52.132Z,99808.50
2023-10-03T20:38:19.535Z,99802.63
2023-10-03T20:40:46.196Z,99810.16
2023-10-03T20:43:16.126Z,99820.41
2023-10-03T20:45:42.787Z,99821.94
2023-10-03T20:48:09.767Z,99820.38
2023-10-03T20:50:37.088Z,99818.16
2023-10-03T20:53:03.996Z,99821.56
2023-10-03T20:55:31.098Z,99815.16
2023-10-03T20:57:58.492Z,99812.13
2023-10-03T21:00:27.860Z,99823.50
2023-10-03T21:02:54.715Z,99819.47
2023-10-03T21:05:21.385Z,99808.13
2023-10-03T21:07:49.188Z,99805.28
2023-10-03T21:10:17.427Z,99807.34
2023-10-03T21:12:44.811Z,99803.22
2023-10-03T21:15:16.604Z,99802.19
2023-10-03T21:17:43.673Z,99801.91
2023-10-03T21:20:12.813Z,99790.53
2023-10-03T21:22:41.067Z,99792.22
2023-10-03T21:25:10.441Z,99791.31
2023-10-03T21:27:38.900Z,99793.97
2023-10-03T21:30:08.952Z,99789.03
2023-10-03T21:32:35.893Z,99792.03
2023-10-03T21:35:03.213Z,99786.75
2023-10-03T21:37:29.960Z,99789.03
2023-10-03T21:39:56.595Z,99785.13
2023-10-03T21:42:26.075Z,99785.88
2023-10-03T21:44:54.331Z,99792.22
2023-10-03T21:47:21.018Z,99785.41
2023-10-03T21:49:47.718Z,99787.59
2023-10-03T21:52:14.324Z,99779.06
2023-10-03T21:54:40.923Z,99771.88
2023-10-03T21:57:09.044Z,99764.38
2023-10-03T21:59:36.729Z,99759.06
2023-10-03T22:02:03.896Z,99761.69
2023-10-03T22:04:30.532Z,99765.31
2023-10-03T22:06:57.738Z,99761.69
2023-10-03T22:09:24.379Z,99779.06
2023-10-03T22:11:51.479Z,99772.41
2023-10-03T22:14:21.072Z,99776.97
2023-10-03T22:16:48.022Z,99769.09
2023-10-03T22:19:15.258Z,99771.34
2023-10-03T22:21:42.277Z,99767.56
2023-10-03T22:24:09.104Z,99780.09
2023-10-03T22:26:36.353Z,99772.72
2023-10-03T22:29:03.702Z,99776.69
2023-10-03T22:31:30.869Z,99775.91
2023-10-03T22:33:57.745Z,99781.44
2023-10-03T22:36:25.762Z,99779.03
2023-10-03T22:38:52.841Z,99770.88
2023-10-03T22:41:19.977Z,99784.28
2023-10-03T22:43:46.781Z,99785.88
2023-10-03T22:46:13.642Z,99796.94
2023-10-03T22:48:43.532Z,99802.34
2023-10-03T22:51:10.706Z,99805.22
2023-10-03T22:53:37.361Z,99801.31
2023-10-03T22:56:04.372Z,99789.81
2023-10-03T22:58:31.100Z,99789.38
2023-10-03T23:00:58.705Z,99783.78
2023-10-03T23:03:26.594Z,99788.16
2023-10-03T23:05:53.367Z,99790.66
2023-10-03T23:08:20.197Z,99782.03
2023-10-03T23:10:47.346Z,99786.41
2023-10-03T23:13:13.998Z,99783.97
2023-10-03T23:15:42.522Z,99782.38
2023-10-03T23:18:09.340Z,99781.44
2023-10-03T23:20:36.041Z,99783.13
2023-10-03T23:23:02.847Z,99781.34
2023-10-03T23:25:30.153Z,99774.88
2023-10-03T23:27:59.412Z,99773.34
2023-10-03T23:30:26.422Z,99773.75
2023-10-03T23:32:54.322Z,99782.25
2023-10-03T23:35:21.715Z,99781.72
2023-10-03T23:37:49.517Z,99786.84
2023-10-03T23:40:16.570Z,99784.34
2023-10-03T23:42:44.782Z,99786.94
2023-10-03T23:45:14.152Z,99793.84
2023-10-03T23:47:41.081Z,99799.94
2023-10-03T23:50:11.625Z,99798.53
2023-10-03T23:52:40.958Z,99805.84
2023-10-03T23:55:12.564Z,99803.91
2023-10-03T23:57:40.814Z,99808.03
